Sandwich, Massachusetts
Current Conditions -  °F | °C
As of 6:15 AM on Thursday 25 Dec 2014 (Local Time) from KFMH Reporting Station
Haze Haze  
Wind Chill: 61°   Ceiling: 500
Heat Index: 61°   Visibility: 3mi
Dew Point: 61°   Wind: 22mph
Humidity: 100%   Direction: 220°SW
Pressure: 29.55"   Gusts: 31mph
Location:  41.75°N, 70.49°W
Report Text: KFMH 251115Z AUTO 22019G27KT 3SM BR OVC005 16/16 A2955 RMK AO2
Loading
Personal Weather Stations






























Interactive Weather Map New forecast layout! Learn more

10-Day Weather Forecast

Advertisements
Track Severe Weather on mobile